createdAt,value
2019-03-16T00:02:02.962Z,1.70
2019-03-16T00:04:33.808Z,2.03
2019-03-16T00:07:04.535Z,1.50
2019-03-16T00:09:35.309Z,2.13
2019-03-16T00:12:06.038Z,1.20
2019-03-16T00:14:37.020Z,1.93
2019-03-16T00:17:08.834Z,1.37
2019-03-16T00:19:40.556Z,1.40
2019-03-16T00:22:11.183Z,1.47
2019-03-16T00:24:43.555Z,1.53
2019-03-16T00:27:14.344Z,1.70
2019-03-16T00:29:45.125Z,1.80
2019-03-16T00:32:15.977Z,1.93
2019-03-16T00:34:46.846Z,1.90
2019-03-16T00:37:17.582Z,1.53
2019-03-16T00:39:48.306Z,1.80
2019-03-16T00:42:20.617Z,2.23
2019-03-16T00:44:51.602Z,1.40
2019-03-16T00:47:22.307Z,1.70
2019-03-16T00:49:52.970Z,1.73
2019-03-16T00:52:23.713Z,1.50
2019-03-16T00:54:54.515Z,1.80
2019-03-16T00:57:25.271Z,1.80
2019-03-16T00:59:57.612Z,1.53
2019-03-16T01:02:32.731Z,2.13
2019-03-16T01:05:02.511Z,1.90
2019-03-16T01:07:33.250Z,1.60
2019-03-16T01:10:04.693Z,1.50
2019-03-16T01:12:35.447Z,1.67
2019-03-16T01:15:06.601Z,1.70
2019-03-16T01:17:37.356Z,1.50
2019-03-16T01:20:11.318Z,1.70
2019-03-16T01:22:44.974Z,1.93
2019-03-16T01:25:15.743Z,1.60
2019-03-16T01:27:46.437Z,2.10
2019-03-16T01:30:17.183Z,1.80
2019-03-16T01:32:47.917Z,1.50
2019-03-16T01:35:18.666Z,1.70
2019-03-16T01:37:49.444Z,1.40
2019-03-16T01:40:20.138Z,2.00
2019-03-16T01:42:50.949Z,1.73
2019-03-16T01:45:21.591Z,1.90
2019-03-16T01:47:52.299Z,1.67
2019-03-16T01:50:23.117Z,1.63
2019-03-16T02:08:52.037Z,2.40
2019-03-16T02:11:24.775Z,1.90
2019-03-16T02:13:58.046Z,2.33
2019-03-16T02:16:28.775Z,2.00
2019-03-16T02:19:01.892Z,2.27
2019-03-16T02:21:38.817Z,1.80
2019-03-16T02:24:10.854Z,1.90
2019-03-16T02:26:41.623Z,2.63
2019-03-16T02:29:12.452Z,2.67
2019-03-16T02:31:43.367Z,2.33
2019-03-16T02:34:14.134Z,2.60
2019-03-16T02:36:57.333Z,2.43
2019-03-16T02:39:29.202Z,2.20
2019-03-16T02:42:02.200Z,2.00
2019-03-16T02:44:34.506Z,2.20
2019-03-16T02:47:05.211Z,2.63
2019-03-16T02:49:35.900Z,2.33
2019-03-16T02:52:06.620Z,3.00
2019-03-16T02:54:37.298Z,2.70
2019-03-16T02:57:08.067Z,2.40
2019-03-16T02:59:40.502Z,2.87
2019-03-16T03:02:12.264Z,2.17
2019-03-16T03:04:45.891Z,2.33
2019-03-16T03:07:16.440Z,2.20
2019-03-16T03:09:47.389Z,2.23
2019-03-16T03:12:18.958Z,2.33
2019-03-16T03:14:49.719Z,2.50
2019-03-16T03:17:24.426Z,2.50
2019-03-16T03:19:58.243Z,2.60
2019-03-16T03:22:31.750Z,2.60
2019-03-16T03:25:02.726Z,2.90
2019-03-16T03:27:33.497Z,3.10
2019-03-16T03:30:05.890Z,3.60
2019-03-16T03:32:37.270Z,3.60
2019-03-16T03:35:08.546Z,3.10
2019-03-16T03:37:44.106Z,4.13
2019-03-16T03:40:15.201Z,3.30
2019-03-16T03:42:45.889Z,3.50
2019-03-16T03:45:16.669Z,3.77
2019-03-16T03:47:47.469Z,3.40
2019-03-16T03:50:18.790Z,3.53
2019-03-16T03:52:49.875Z,2.53
2019-03-16T03:55:20.630Z,3.53
2019-03-16T03:57:51.366Z,3.10
2019-03-16T04:00:22.034Z,3.47
2019-03-16T04:02:53.120Z,2.97
2019-03-16T04:05:24.191Z,2.47
2019-03-16T04:07:55.751Z,1.97
2019-03-16T04:10:26.439Z,2.17
2019-03-16T04:12:57.165Z,3.20
2019-03-16T04:15:27.877Z,2.87
2019-03-16T04:17:58.890Z,2.97
2019-03-16T04:20:29.658Z,3.30
2019-03-16T04:23:00.621Z,3.13
2019-03-16T04:25:32.991Z,3.13
2019-03-16T04:28:03.759Z,3.50
2019-03-16T04:30:34.486Z,3.30
2019-03-16T04:33:05.171Z,3.90
2019-03-16T04:35:37.706Z,3.70
2019-03-16T04:38:09.814Z,4.17
2019-03-16T04:40:40.539Z,3.93
2019-03-16T04:43:11.318Z,4.30
2019-03-16T04:45:43.333Z,4.20
2019-03-16T04:48:14.583Z,4.07
2019-03-16T04:50:45.352Z,3.97
2019-03-16T04:53:16.154Z,4.60
2019-03-16T04:55:46.819Z,4.57
2019-03-16T04:58:17.516Z,4.93
2019-03-16T05:00:48.693Z,5.70
2019-03-16T05:03:30.952Z,5.33
2019-03-16T05:06:03.910Z,5.00
2019-03-16T05:08:37.459Z,6.03
2019-03-16T05:11:10.214Z,5.30
2019-03-16T05:13:44.378Z,4.83
2019-03-16T05:16:16.409Z,3.73
2019-03-16T05:18:47.138Z,4.73
2019-03-16T05:21:18.185Z,4.87
2019-03-16T05:23:49.398Z,3.97
2019-03-16T05:26:21.743Z,4.27
2019-03-16T05:28:52.685Z,4.67
2019-03-16T05:31:24.688Z,4.67
2019-03-16T05:33:55.895Z,4.87
2019-03-16T05:36:26.678Z,4.70
2019-03-16T05:38:57.427Z,5.23
2019-03-16T05:41:28.266Z,4.30
2019-03-16T05:43:59.145Z,4.67
2019-03-16T05:46:30.965Z,4.50
2019-03-16T05:49:02.033Z,5.27
2019-03-16T05:51:32.734Z,4.43
2019-03-16T05:54:03.482Z,4.20
2019-03-16T05:56:34.243Z,4.53
2019-03-16T05:59:05.006Z,4.37
2019-03-16T06:01:35.870Z,5.37
2019-03-16T06:04:07.786Z,6.07
2019-03-16T06:06:39.631Z,4.73
2019-03-16T06:09:10.477Z,5.60
2019-03-16T06:11:41.506Z,6.27
2019-03-16T06:14:12.238Z,5.33
2019-03-16T06:16:42.965Z,4.80
2019-03-16T06:19:15.612Z,5.53
2019-03-16T06:21:46.514Z,6.57
2019-03-16T06:24:18.203Z,6.37
2019-03-16T06:26:48.870Z,5.43
2019-03-16T06:29:19.693Z,6.07
2019-03-16T06:31:50.413Z,6.87
2019-03-16T06:34:21.881Z,7.53
2019-03-16T06:36:52.606Z,8.57
2019-03-16T06:39:24.292Z,9.57
2019-03-16T06:41:56.659Z,10.13
2019-03-16T06:44:30.162Z,10.50
2019-03-16T06:47:01.024Z,10.07
2019-03-16T06:49:34.113Z,10.47
2019-03-16T06:52:05.409Z,10.43
2019-03-16T06:54:37.079Z,8.27
2019-03-16T06:57:08.525Z,6.57
2019-03-16T06:59:39.948Z,7.57
2019-03-16T07:02:12.400Z,5.90
2019-03-16T07:04:46.454Z,6.77
2019-03-16T07:07:19.462Z,6.60
2019-03-16T07:09:51.468Z,4.97
2019-03-16T07:12:22.225Z,4.93
2019-03-16T07:14:52.998Z,4.50
2019-03-16T07:17:23.793Z,4.67
2019-03-16T07:19:54.949Z,7.47
2019-03-16T07:22:25.695Z,4.53
2019-03-16T07:24:56.404Z,5.20
2019-03-16T07:27:27.989Z,5.30
2019-03-16T07:30:03.890Z,5.47
2019-03-16T07:32:34.927Z,5.30
2019-03-16T07:35:08.343Z,5.70
2019-03-16T07:37:40.344Z,5.17
2019-03-16T07:40:11.225Z,4.50
2019-03-16T07:42:42.428Z,6.30
2019-03-16T07:45:15.122Z,6.47
2019-03-16T07:47:46.801Z,3.37
2019-03-16T07:50:19.886Z,5.23
2019-03-16T07:52:53.388Z,5.63
2019-03-16T07:55:24.281Z,4.67
2019-03-16T07:57:55.070Z,4.87
2019-03-16T08:00:25.760Z,4.80
2019-03-16T08:02:56.585Z,4.70
2019-03-16T08:05:27.366Z,3.87
2019-03-16T08:07:58.094Z,4.50
2019-03-16T08:10:28.827Z,5.07
2019-03-16T08:12:59.552Z,3.53
2019-03-16T08:15:31.861Z,3.80
2019-03-16T08:18:02.627Z,4.07
2019-03-16T08:20:33.329Z,4.10
2019-03-16T08:23:04.066Z,3.33
2019-03-16T08:25:37.421Z,3.60
2019-03-16T08:28:08.537Z,4.00
2019-03-16T08:30:39.263Z,3.23
2019-03-16T08:33:11.585Z,3.23
2019-03-16T08:35:44.267Z,3.70
2019-03-16T08:38:14.734Z,3.77
2019-03-16T08:40:45.626Z,3.10
2019-03-16T08:43:16.440Z,4.03
2019-03-16T08:45:47.139Z,4.93
2019-03-16T08:48:23.145Z,5.77
2019-03-16T08:50:53.562Z,5.80
2019-03-16T08:53:24.625Z,4.20
2019-03-16T08:55:56.974Z,6.63
2019-03-16T08:58:29.270Z,6.33
2019-03-16T09:01:01.328Z,6.37
2019-03-16T09:03:43.669Z,6.37
2019-03-16T09:06:07.447Z,5.60
2019-03-16T09:08:38.286Z,6.40
2019-03-16T09:11:10.704Z,7.93
2019-03-16T09:13:44.548Z,4.77
2019-03-16T09:16:16.654Z,7.07
2019-03-16T09:18:48.359Z,4.77
2019-03-16T09:21:19.214Z,4.03
2019-03-16T09:23:53.021Z,4.33
2019-03-16T09:26:23.874Z,5.23
2019-03-16T09:29:00.188Z,3.23
2019-03-16T09:31:28.663Z,5.17
2019-03-16T09:34:01.584Z,3.70
2019-03-16T09:36:34.013Z,4.37
2019-03-16T09:39:07.737Z,4.10
2019-03-16T09:41:38.472Z,3.80
2019-03-16T09:44:11.629Z,5.53
2019-03-16T09:46:42.726Z,4.20
2019-03-16T09:49:13.484Z,4.37
2019-03-16T09:51:46.044Z,3.67
2019-03-16T09:54:19.498Z,5.00
2019-03-16T09:57:00.554Z,5.40
2019-03-16T09:59:25.584Z,4.97
2019-03-16T10:01:56.423Z,3.97
2019-03-16T10:04:28.752Z,5.13
2019-03-16T10:06:59.514Z,3.37
2019-03-16T10:09:30.691Z,3.87
2019-03-16T10:12:01.410Z,3.87
2019-03-16T10:14:32.116Z,3.50
2019-03-16T10:17:08.938Z,2.80
2019-03-16T10:19:38.184Z,3.83
2019-03-16T10:22:08.951Z,3.13
2019-03-16T10:24:39.765Z,3.10
2019-03-16T10:27:10.522Z,3.53
2019-03-16T10:29:41.247Z,2.50
2019-03-16T10:32:15.010Z,2.87
2019-03-16T10:34:46.318Z,3.10
2019-03-16T10:37:18.119Z,2.30
2019-03-16T10:39:48.807Z,2.97
2019-03-16T10:42:19.521Z,3.00
2019-03-16T10:44:50.401Z,3.07
2019-03-16T10:47:21.162Z,2.60
2019-03-16T10:49:52.411Z,2.40
2019-03-16T10:52:23.243Z,2.57
2019-03-16T10:54:53.910Z,1.90
2019-03-16T10:57:25.171Z,2.20
2019-03-16T10:59:55.873Z,1.60
2019-03-16T11:02:26.566Z,2.50
2019-03-16T11:04:57.581Z,1.80
2019-03-16T11:07:28.973Z,1.80
2019-03-16T11:09:59.980Z,1.60
2019-03-16T11:12:32.520Z,1.53
2019-03-16T11:15:03.931Z,1.30
2019-03-16T11:17:35.425Z,1.67
2019-03-16T11:20:06.719Z,1.60
2019-03-16T11:22:37.460Z,0.83
2019-03-16T11:25:13.612Z,1.60
2019-03-16T11:27:46.096Z,1.83
2019-03-16T11:30:17.029Z,1.17
2019-03-16T11:32:49.647Z,1.77
2019-03-16T11:35:24.794Z,1.17
2019-03-16T11:38:00.051Z,1.20
2019-03-16T11:40:31.181Z,1.03
2019-03-16T11:43:02.139Z,1.10
2019-03-16T11:45:35.793Z,1.37
2019-03-16T11:48:06.794Z,1.33
2019-03-16T11:50:37.650Z,1.03
2019-03-16T11:53:08.482Z,1.30
2019-03-16T11:55:39.157Z,1.40
2019-03-16T11:58:09.929Z,1.60
2019-03-16T12:00:40.771Z,0.83
2019-03-16T12:03:12.746Z,1.03
2019-03-16T12:05:45.574Z,1.10
2019-03-16T12:08:16.371Z,1.40
2019-03-16T12:10:47.794Z,1.57
2019-03-16T12:13:19.436Z,1.50
2019-03-16T12:15:50.770Z,1.67
2019-03-16T12:18:22.009Z,2.03
2019-03-16T12:20:52.756Z,1.57
2019-03-16T12:23:23.505Z,1.60
2019-03-16T12:25:59.505Z,1.23
2019-03-16T12:28:30.417Z,1.53
2019-03-16T12:31:03.486Z,1.23
2019-03-16T12:33:34.256Z,1.07
2019-03-16T12:36:05.093Z,1.57
2019-03-16T12:38:35.925Z,0.70
2019-03-16T12:41:09.385Z,1.40
2019-03-16T12:43:40.235Z,1.40
2019-03-16T12:46:11.943Z,1.60
2019-03-16T12:48:44.402Z,0.97
2019-03-16T12:51:15.198Z,1.27
2019-03-16T12:53:57.127Z,1.80
2019-03-16T12:56:28.086Z,1.70
2019-03-16T12:59:09.798Z,1.10
2019-03-16T13:01:33.143Z,1.27
2019-03-16T13:04:03.846Z,0.90
2019-03-16T13:06:34.606Z,1.40
2019-03-16T13:09:07.767Z,1.70
2019-03-16T13:11:38.711Z,1.23
2019-03-16T13:14:10.648Z,1.17
2019-03-16T13:16:41.418Z,1.20
2019-03-16T13:19:12.630Z,1.40
2019-03-16T13:21:45.843Z,1.13
2019-03-16T13:24:20.091Z,0.40
2019-03-16T13:26:50.855Z,1.00
2019-03-16T13:29:21.600Z,1.20
2019-03-16T13:31:54.253Z,0.93
2019-03-16T13:34:25.557Z,1.43
2019-03-16T13:36:58.854Z,1.00
2019-03-16T13:39:29.570Z,1.27
2019-03-16T13:42:01.813Z,1.07
2019-03-16T13:44:32.717Z,0.90
2019-03-16T13:47:03.701Z,1.37
2019-03-16T13:49:36.131Z,1.07
2019-03-16T13:52:06.899Z,1.70
2019-03-16T13:54:37.958Z,2.07
2019-03-16T13:57:08.677Z,1.03
2019-03-16T13:59:39.747Z,1.30
2019-03-16T14:02:10.600Z,1.53
2019-03-16T14:04:42.073Z,1.50
2019-03-16T14:07:14.470Z,1.20
2019-03-16T14:09:45.385Z,1.10
2019-03-16T14:12:17.826Z,1.13
2019-03-16T14:14:50.387Z,1.57
2019-03-16T14:17:21.235Z,1.43
2019-03-16T14:19:52.091Z,1.27
2019-03-16T14:22:22.930Z,0.70
2019-03-16T14:24:53.747Z,1.30
2019-03-16T14:27:24.552Z,1.80
2019-03-16T14:29:55.334Z,1.37
2019-03-16T14:32:26.548Z,1.00
2019-03-16T14:34:57.383Z,0.97
2019-03-16T14:37:29.977Z,1.53
2019-03-16T14:40:02.085Z,1.17
2019-03-16T14:42:32.948Z,1.63
2019-03-16T14:45:06.316Z,1.20
2019-03-16T14:47:38.009Z,1.10
2019-03-16T14:50:16.476Z,1.57
2019-03-16T14:52:47.528Z,1.10
2019-03-16T14:55:18.270Z,1.07
2019-03-16T14:57:52.149Z,1.20
2019-03-16T15:00:22.959Z,1.37
2019-03-16T15:02:53.750Z,1.37
2019-03-16T15:05:24.446Z,1.80
2019-03-16T15:07:55.220Z,1.20
2019-03-16T15:10:27.632Z,1.33
2019-03-16T15:13:00.002Z,1.47
2019-03-16T15:15:30.698Z,0.90
2019-03-16T15:18:03.134Z,1.70
2019-03-16T15:20:34.172Z,1.20
2019-03-16T15:23:05.068Z,1.43
2019-03-16T15:25:38.317Z,1.00
2019-03-16T15:28:09.182Z,1.33
2019-03-16T15:30:50.720Z,1.10
2019-03-16T15:33:14.889Z,1.27
2019-03-16T15:35:45.758Z,1.07
2019-03-16T15:38:18.102Z,1.67
2019-03-16T15:40:49.087Z,1.50
2019-03-16T15:43:22.512Z,1.80
2019-03-16T15:45:56.387Z,1.87
2019-03-16T15:48:30.227Z,1.70
2019-03-16T15:51:01.017Z,1.93
2019-03-16T15:53:31.710Z,1.93
2019-03-16T15:56:02.474Z,1.70
2019-03-16T15:58:33.214Z,1.37
2019-03-16T16:01:04.161Z,1.70
2019-03-16T16:03:41.555Z,1.10
2019-03-16T16:06:14.097Z,1.83
2019-03-16T16:08:44.906Z,1.43
2019-03-16T16:11:18.593Z,1.57
2019-03-16T16:13:49.408Z,1.17
2019-03-16T16:16:20.235Z,1.77
2019-03-16T16:18:50.986Z,1.40
2019-03-16T16:21:21.812Z,2.83
2019-03-16T16:23:52.553Z,2.03
2019-03-16T16:26:24.131Z,2.77
2019-03-16T16:28:54.880Z,3.23
2019-03-16T16:31:25.605Z,2.20
2019-03-16T16:33:58.067Z,1.90
2019-03-16T16:36:30.593Z,2.17
2019-03-16T16:39:01.314Z,1.90
2019-03-16T16:41:34.166Z,2.10
2019-03-16T16:44:04.766Z,1.03
2019-03-16T16:46:35.580Z,1.37
2019-03-16T16:49:06.345Z,1.97
2019-03-16T16:51:38.806Z,1.90
2019-03-16T16:54:09.664Z,2.00
2019-03-16T16:56:40.644Z,1.50
2019-03-16T16:59:12.428Z,2.17
2019-03-16T17:01:43.236Z,1.67
2019-03-16T17:04:14.119Z,2.07
2019-03-16T17:06:44.864Z,2.23
2019-03-16T17:09:15.708Z,1.70
2019-03-16T17:11:47.864Z,1.57
2019-03-16T17:14:18.783Z,2.37
2019-03-16T17:16:49.596Z,1.40
2019-03-16T17:19:20.434Z,2.17
2019-03-16T17:21:51.252Z,1.70
2019-03-16T17:24:22.201Z,2.13
2019-03-16T17:26:52.900Z,1.67
2019-03-16T17:29:23.613Z,1.90
2019-03-16T17:31:54.296Z,2.10
2019-03-16T17:34:25.037Z,2.23
2019-03-16T17:36:55.915Z,2.23
2019-03-16T17:39:26.809Z,2.10
2019-03-16T17:41:57.586Z,2.27
2019-03-16T17:44:28.465Z,2.20
2019-03-16T17:46:59.301Z,2.57
2019-03-16T17:49:30.757Z,2.63
2019-03-16T17:52:01.461Z,1.57
2019-03-16T17:54:33.285Z,2.17
2019-03-16T17:57:05.978Z,2.70
2019-03-16T17:59:36.530Z,1.80
2019-03-16T18:02:09.806Z,1.90
2019-03-16T18:04:42.274Z,2.17
2019-03-16T18:07:24.348Z,2.03
2019-03-16T18:10:05.003Z,2.43
2019-03-16T18:13:05.281Z,2.17
2019-03-16T18:15:26.222Z,2.03
2019-03-16T18:18:25.139Z,2.77
2019-03-16T18:21:09.450Z,1.83
2019-03-16T18:31:40.165Z,3.23
2019-03-16T18:34:13.964Z,2.97
2019-03-16T18:36:44.865Z,3.30
2019-03-16T18:39:18.635Z,3.37
2019-03-16T18:41:49.818Z,3.10
2019-03-16T18:44:22.289Z,3.17
2019-03-16T18:46:54.747Z,3.60
2019-03-16T18:49:25.500Z,3.60
2019-03-16T18:51:57.306Z,4.07
2019-03-16T18:54:27.995Z,3.57
2019-03-16T18:56:58.838Z,4.23
2019-03-16T18:59:29.591Z,4.10
2019-03-16T19:02:00.507Z,3.87
2019-03-16T19:04:31.351Z,3.90
2019-03-16T19:07:02.225Z,4.40
2019-03-16T19:09:34.806Z,4.93
2019-03-16T19:12:05.684Z,3.73
2019-03-16T19:14:47.234Z,4.50
2019-03-16T19:17:18.444Z,4.50
2019-03-16T19:19:52.301Z,4.23
2019-03-16T19:22:42.474Z,4.73
2019-03-16T19:25:14.163Z,4.27
2019-03-16T19:27:45.534Z,3.10
2019-03-16T19:30:16.566Z,4.13
2019-03-16T19:32:47.770Z,4.50
2019-03-16T19:35:19.158Z,4.87
2019-03-16T19:37:50.801Z,4.67
2019-03-16T19:40:23.042Z,4.63
2019-03-16T19:42:54.560Z,4.37
2019-03-16T19:45:26.574Z,4.37
2019-03-16T19:47:58.833Z,3.83
2019-03-16T19:50:30.234Z,4.23
2019-03-16T19:53:02.425Z,4.07
2019-03-16T19:55:33.693Z,3.73
2019-03-16T19:58:06.260Z,3.50
2019-03-16T20:00:38.039Z,4.37
2019-03-16T20:03:09.201Z,4.07
2019-03-16T20:05:40.875Z,4.10
2019-03-16T20:08:13.110Z,4.13
2019-03-16T20:10:45.517Z,4.70
2019-03-16T20:13:16.932Z,4.03
2019-03-16T20:15:48.994Z,4.10
2019-03-16T20:18:21.175Z,4.10
2019-03-16T20:20:52.947Z,4.03
2019-03-16T20:23:25.534Z,2.87
2019-03-16T20:25:57.476Z,3.63
2019-03-16T20:28:31.210Z,3.30
2019-03-16T20:31:03.043Z,4.07
2019-03-16T20:33:34.555Z,4.07
2019-03-16T20:36:05.753Z,3.83
2019-03-16T20:38:38.158Z,3.20
2019-03-16T20:41:10.223Z,3.20
2019-03-16T20:43:42.227Z,3.73
2019-03-16T20:46:14.253Z,3.83
2019-03-16T20:48:47.118Z,3.60
2019-03-16T20:51:21.689Z,3.50
2019-03-16T20:53:54.096Z,3.47
2019-03-16T20:56:26.742Z,3.90
2019-03-16T20:59:02.357Z,2.97
2019-03-16T21:01:34.916Z,3.10
2019-03-16T21:04:28.098Z,3.13
2019-03-16T21:07:01.419Z,3.97
2019-03-16T21:09:33.856Z,3.90
2019-03-16T21:12:12.443Z,4.00
2019-03-16T21:14:47.601Z,3.27
2019-03-16T21:17:23.467Z,3.10
2019-03-16T21:19:56.748Z,3.23
2019-03-16T21:22:36.257Z,2.93
2019-03-16T21:25:02.714Z,2.87
2019-03-16T21:27:36.454Z,2.97
2019-03-16T21:30:09.959Z,3.43
2019-03-16T21:32:43.273Z,3.73
2019-03-16T21:35:17.072Z,3.90
2019-03-16T21:37:49.839Z,3.60
2019-03-16T21:40:21.733Z,4.30
2019-03-16T21:42:56.801Z,4.03
2019-03-16T21:45:30.847Z,3.90
2019-03-16T21:48:06.850Z,4.67
2019-03-16T21:50:37.718Z,2.97
2019-03-16T21:53:09.425Z,3.20
2019-03-16T21:55:48.486Z,3.47
2019-03-16T21:58:28.309Z,3.00
2019-03-16T22:01:00.607Z,3.63
2019-03-16T22:03:41.533Z,3.87
2019-03-16T22:06:04.075Z,2.87
2019-03-16T22:08:34.739Z,3.70
2019-03-16T22:11:05.579Z,3.70
2019-03-16T22:13:36.462Z,3.90
2019-03-16T22:16:11.846Z,3.20
2019-03-16T22:18:45.142Z,3.20
2019-03-16T22:21:16.701Z,3.90
2019-03-16T22:23:48.042Z,3.53
2019-03-16T22:26:18.733Z,3.40
2019-03-16T22:28:52.021Z,3.87
2019-03-16T22:31:22.780Z,2.90
2019-03-16T22:33:55.885Z,3.80
2019-03-16T22:36:28.563Z,2.63
2019-03-16T22:38:59.314Z,3.07
2019-03-16T22:41:30.050Z,3.50
2019-03-16T22:44:01.550Z,3.87
2019-03-16T22:46:37.343Z,3.57
2019-03-16T22:49:09.782Z,3.33
2019-03-16T22:51:43.270Z,3.97
2019-03-16T22:54:14.200Z,3.17
2019-03-16T22:56:45.195Z,3.13
2019-03-16T22:59:15.966Z,3.50
2019-03-16T23:01:47.062Z,3.80
2019-03-16T23:04:17.842Z,3.73
2019-03-16T23:06:48.492Z,3.60
2019-03-16T23:09:22.796Z,4.77
2019-03-16T23:11:55.847Z,3.70
2019-03-16T23:14:26.650Z,3.83
2019-03-16T23:17:03.769Z,4.17
2019-03-16T23:19:39.498Z,3.50
2019-03-16T23:22:11.394Z,4.07
2019-03-16T23:24:42.164Z,3.40
2019-03-16T23:27:13.994Z,3.23
2019-03-16T23:29:48.782Z,3.87
2019-03-16T23:32:19.725Z,3.93
2019-03-16T23:34:52.778Z,3.40
2019-03-16T23:37:30.113Z,3.70
2019-03-16T23:40:00.820Z,4.17
2019-03-16T23:42:33.827Z,3.33
2019-03-16T23:45:07.448Z,2.70
2019-03-16T23:47:41.847Z,4.07
2019-03-16T23:50:13.418Z,3.87
2019-03-16T23:52:47.158Z,4.20
2019-03-16T23:55:18.174Z,3.23
2019-03-16T23:57:48.857Z,4.43
